Time;durP1;ratioP1;P1;durP2;ratioP2;P2;SDS_P1;SDS_P2;PMS_P1;PMS_P2;Temp;Humidity;BMP_temperature;BMP_pressure;BME280_temperature;BME280_humidity;BME280_pressure;Samples;Min_cycle;Max_cycle;Signal;HPM_P1;HPM_P2
2022/10/14 00:01:32;;;;;;;0.57;0.57;;;;;;;11.52;71.48;99588.91;5112341;28;20608;-57
2022/10/14 00:03:59;;;;;;;0.60;0.60;;;;;;;11.46;71.69;99584.19;5112817;28;20197;-57
2022/10/14 00:06:28;;;;;;;0.63;0.63;;;;;;;11.44;71.97;99591.16;5112012;28;20205;-57
2022/10/14 00:08:56;;;;;;;0.33;0.30;;;;;;;11.43;72.11;99592.09;5112410;28;20209;-57
2022/10/14 00:11:26;;;;;;;1.80;1.10;;;;;;;11.28;72.66;99585.41;5112753;28;20213;-58
2022/10/14 00:13:54;;;;;;;0.30;0.30;;;;;;;11.18;73.50;99584.41;5112350;28;20204;-57
2022/10/14 00:16:23;;;;;;;1.03;0.40;;;;;;;11.15;73.63;99574.38;5112553;28;20579;-57
2022/10/14 00:18:51;;;;;;;0.60;0.60;;;;;;;11.25;73.42;99578.75;5112219;28;20228;-57
2022/10/14 00:21:18;;;;;;;0.63;0.60;;;;;;;11.23;73.82;99577.25;5112322;28;20197;-57
2022/10/14 00:23:46;;;;;;;0.30;0.30;;;;;;;11.14;74.29;99576.13;5112115;28;20193;-58
2022/10/14 00:26:19;;;;;;;0.40;0.40;;;;;;;11.14;74.26;99582.97;5112294;28;20193;-57
2022/10/14 00:28:47;;;;;;;0.30;0.30;;;;;;;11.19;74.34;99575.81;5112062;28;20205;-58
2022/10/14 00:31:15;;;;;;;0.53;0.53;;;;;;;11.24;74.01;99584.00;5112061;28;20197;-57
2022/10/14 00:33:42;;;;;;;0.23;0.23;;;;;;;11.27;73.76;99571.00;5111855;28;20200;-58
2022/10/14 00:36:11;;;;;;;0.80;0.47;;;;;;;11.24;74.01;99573.75;5111781;28;20201;-58
2022/10/14 00:38:38;;;;;;;1.10;0.47;;;;;;;11.13;74.13;99571.09;5111649;28;20225;-58
2022/10/14 00:41:07;;;;;;;0.47;0.47;;;;;;;10.98;74.64;99571.19;5111929;28;20193;-58
2022/10/14 00:43:54;;;;;;;0.30;0.30;;;;;;;10.86;75.52;99572.00;5111816;28;20661;-58
2022/10/14 00:46:21;;;;;;;0.60;0.60;;;;;;;10.90;75.55;99565.75;5111834;28;20205;-57
2022/10/14 00:48:48;;;;;;;0.33;0.33;;;;;;;10.77;76.71;99564.94;5111615;28;20196;-58
2022/10/14 00:51:15;;;;;;;0.27;0.27;;;;;;;10.69;77.25;99562.06;5111615;28;20224;-58
2022/10/14 00:53:44;;;;;;;0.40;0.40;;;;;;;10.66;77.48;99568.19;5111380;28;20292;-58
2022/10/14 00:56:15;;;;;;;1.03;0.60;;;;;;;10.60;78.19;99561.72;5111564;28;20198;-57
2022/10/14 00:58:43;;;;;;;0.43;0.43;;;;;;;10.70;78.25;99566.25;5111626;28;20255;-58
2022/10/14 01:01:12;;;;;;;0.30;0.30;;;;;;;10.68;78.14;99556.13;5111563;28;20593;-57
2022/10/14 01:03:40;;;;;;;0.30;0.30;;;;;;;10.62;78.63;99556.53;5111627;28;20607;-57
2022/10/14 01:06:30;;;;;;;0.73;0.60;;;;;;;10.69;78.51;99562.06;5111142;28;20201;-58
2022/10/14 01:09:03;;;;;;;0.50;0.50;;;;;;;10.59;79.10;99561.84;5111474;28;20615;-57
2022/10/14 01:11:40;;;;;;;0.73;0.63;;;;;;;10.64;79.11;99560.59;5111292;28;20658;-58
2022/10/14 01:14:19;;;;;;;0.30;0.30;;;;;;;10.54;79.66;99564.69;5111727;28;20205;-57
2022/10/14 01:16:57;;;;;;;0.40;0.40;;;;;;;10.57;79.95;99569.59;5110574;28;20703;-57
2022/10/14 01:19:42;;;;;;;0.57;0.37;;;;;;;10.56;80.01;99567.97;5111048;28;20201;-57
2022/10/14 01:22:17;;;;;;;0.87;0.83;;;;;;;10.58;80.14;99563.56;5111365;28;20600;-57
2022/10/14 01:25:00;;;;;;;0.30;0.30;;;;;;;10.58;80.50;99555.06;5111005;28;20193;-58
2022/10/14 01:27:44;;;;;;;1.40;0.67;;;;;;;10.54;80.59;99554.47;5111016;28;20228;-58
2022/10/14 01:30:18;;;;;;;0.50;0.50;;;;;;;10.55;80.68;99556.09;5110779;28;20610;-58
2022/10/14 01:33:08;;;;;;;0.10;0.10;;;;;;;10.54;80.82;99554.47;5110716;28;20220;-59
2022/10/14 01:35:50;;;;;;;0.40;0.40;;;;;;;10.66;80.21;99547.72;5103180;28;20208;-57
2022/10/14 01:38:22;;;;;;;0.73;0.40;;;;;;;10.61;79.88;99554.88;5110403;28;20229;-57
2022/10/14 01:41:02;;;;;;;0.40;0.40;;;;;;;10.59;80.30;99557.53;5110848;28;20197;-57
2022/10/14 01:43:31;;;;;;;0.40;0.40;;;;;;;10.58;80.27;99548.22;5110653;28;20613;-57
2022/10/14 01:46:03;;;;;;;0.33;0.30;;;;;;;10.51;80.73;99549.53;5110635;28;20197;-57
2022/10/14 01:48:35;;;;;;;0.40;0.40;;;;;;;10.54;80.77;99544.22;5110746;28;20271;-58
2022/10/14 01:51:06;;;;;;;0.50;0.50;;;;;;;10.50;80.98;99553.03;5110760;28;20201;-58
2022/10/14 01:53:38;;;;;;;1.20;0.47;;;;;;;10.57;80.96;99549.16;5110491;28;20205;-58
2022/10/14 01:56:07;;;;;;;0.40;0.40;;;;;;;10.52;80.92;99548.63;5110847;28;20625;-58
2022/10/14 01:58:36;;;;;;;0.63;0.63;;;;;;;10.53;80.96;99552.84;5110737;28;20224;-57
2022/10/14 02:01:06;;;;;;;0.43;0.43;;;;;;;10.57;80.81;99549.16;5110475;28;20738;-58
2022/10/14 02:03:41;;;;;;;0.40;0.40;;;;;;;10.61;80.83;99549.75;5110390;28;20201;-58
2022/10/14 02:06:15;;;;;;;0.27;0.27;;;;;;;10.59;80.41;99542.19;5110525;28;20201;-58
2022/10/14 02:08:58;;;;;;;0.73;0.50;;;;;;;10.58;80.65;99545.66;5110235;28;20197;-57
2022/10/14 02:11:26;;;;;;;0.33;0.33;;;;;;;10.46;80.88;99545.66;5110464;28;20604;-58
2022/10/14 02:14:10;;;;;;;0.63;0.63;;;;;;;10.55;81.59;99548.41;5110265;28;20193;-57
2022/10/14 02:16:41;;;;;;;1.20;0.23;;;;;;;10.49;81.79;99545.44;5110324;28;20247;-58
2022/10/14 02:19:17;;;;;;;0.37;0.37;;;;;;;10.50;81.67;99542.81;5110271;28;20244;-57
2022/10/14 02:21:48;;;;;;;0.20;0.20;;;;;;;10.41;81.81;99539.09;5110043;28;20233;-58
2022/10/14 02:24:22;;;;;;;0.20;0.20;;;;;;;10.35;82.21;99546.31;5110143;28;20213;-58
2022/10/14 02:26:53;;;;;;;0.50;0.50;;;;;;;10.36;82.09;99555.66;5110181;28;20225;-57
2022/10/14 02:29:22;;;;;;;0.40;0.40;;;;;;;10.28;82.05;99545.91;5113324;28;20580;-58
2022/10/14 02:31:53;;;;;;;0.50;0.47;;;;;;;10.25;82.19;99547.81;5114550;28;20255;-57
2022/10/14 02:34:22;;;;;;;0.40;0.30;;;;;;;10.10;82.66;99540.19;5114221;28;20220;-58
2022/10/14 02:36:50;;;;;;;0.33;0.33;;;;;;;10.04;83.21;99532.91;5114323;28;20217;-57
2022/10/14 02:39:24;;;;;;;0.63;0.57;;;;;;;10.05;83.86;99531.19;5113978;28;20221;-57
2022/10/14 02:41:51;;;;;;;0.30;0.30;;;;;;;10.02;83.87;99532.19;5114446;28;20660;-57
2022/10/14 02:44:18;;;;;;;0.90;0.50;;;;;;;9.97;84.13;99535.00;5113996;28;20676;-57
2022/10/14 02:46:45;;;;;;;0.50;0.50;;;;;;;9.86;84.82;99536.59;5114143;28;20233;-57
2022/10/14 02:49:13;;;;;;;0.30;0.30;;;;;;;9.85;84.98;99543.44;5114200;28;20464;-57
2022/10/14 02:51:40;;;;;;;0.27;0.27;;;;;;;9.83;85.18;99541.91;5114176;28;20597;-58
2022/10/14 02:54:07;;;;;;;0.30;0.30;;;;;;;9.88;84.88;99539.88;5114132;28;20190;-58
2022/10/14 02:56:34;;;;;;;0.83;0.83;;;;;;;9.69;85.76;99551.25;5113944;28;20224;-58
2022/10/14 02:59:01;;;;;;;0.53;0.53;;;;;;;9.65;86.15;99544.66;5113809;28;20610;-58
2022/10/14 03:01:27;;;;;;;0.40;0.40;;;;;;;9.64;86.77;99550.69;5113734;28;20221;-57
2022/10/14 03:03:54;;;;;;;0.23;0.23;;;;;;;9.65;87.05;99547.22;5113780;28;20592;-57
2022/10/14 03:06:22;;;;;;;0.83;0.83;;;;;;;9.62;87.38;99549.16;5113746;28;20201;-58
2022/10/14 03:08:49;;;;;;;1.00;0.60;;;;;;;9.67;87.42;99542.84;5113591;28;20193;-57
2022/10/14 03:11:16;;;;;;;0.87;0.40;;;;;;;9.73;87.28;99541.66;5113464;28;20204;-57
2022/10/14 03:13:43;;;;;;;1.03;0.77;;;;;;;9.65;87.41;99537.00;5113351;28;20205;-57
2022/10/14 03:16:10;;;;;;;0.20;0.17;;;;;;;9.73;87.63;99546.75;5113702;28;20197;-57
2022/10/14 03:18:37;;;;;;;0.60;0.60;;;;;;;9.69;87.44;99546.13;5113545;28;20302;-57
2022/10/14 03:21:04;;;;;;;0.60;0.40;;;;;;;9.52;88.27;99539.50;5113573;28;20244;-57
2022/10/14 03:23:32;;;;;;;0.20;0.20;;;;;;;9.53;88.13;99542.88;5113173;27;20237;-57
2022/10/14 03:25:59;;;;;;;0.57;0.40;;;;;;;9.56;88.71;99544.41;5113375;28;20708;-58
2022/10/14 03:28:25;;;;;;;0.10;0.10;;;;;;;9.49;88.85;99544.78;5112946;28;20221;-58
2022/10/14 03:30:52;;;;;;;0.20;0.20;;;;;;;9.47;89.27;99546.59;5113081;28;20197;-58
2022/10/14 03:33:19;;;;;;;0.40;0.40;;;;;;;9.47;89.57;99541.50;5113112;28;20591;-58
2022/10/14 03:35:46;;;;;;;0.20;0.20;;;;;;;9.55;89.58;99546.16;5112998;28;20198;-58
2022/10/14 03:38:13;;;;;;;0.30;0.30;;;;;;;9.50;89.81;99540.50;5113144;28;20620;-58
2022/10/14 03:40:41;;;;;;;0.13;0.13;;;;;;;9.43;90.05;99541.81;5112367;28;20189;-57
2022/10/14 03:43:08;;;;;;;0.20;0.20;;;;;;;9.47;90.01;99541.50;5112882;28;20228;-57
2022/10/14 03:45:34;;;;;;;1.50;0.50;;;;;;;9.49;89.98;99543.97;5113023;28;20200;-58
2022/10/14 03:48:01;;;;;;;0.20;0.20;;;;;;;9.47;89.80;99540.69;5112649;28;20237;-57
2022/10/14 03:50:28;;;;;;;0.40;0.40;;;;;;;9.47;89.78;99546.59;5112811;28;20577;-57
2022/10/14 03:52:55;;;;;;;0.30;0.30;;;;;;;9.34;89.90;99538.06;5112679;28;20225;-58
2022/10/14 03:55:22;;;;;;;0.87;0.87;;;;;;;9.32;90.21;99536.50;5112637;28;20700;-57
2022/10/14 03:57:50;;;;;;;1.03;0.70;;;;;;;9.25;90.43;99541.16;5112780;28;20225;-58
2022/10/14 04:00:18;;;;;;;0.40;0.37;;;;;;;9.28;90.41;99541.81;5112663;28;20266;-58
2022/10/14 04:02:44;;;;;;;0.77;0.77;;;;;;;9.26;90.54;99542.81;5112737;28;20228;-58
2022/10/14 04:05:11;;;;;;;0.67;0.67;;;;;;;9.22;90.74;99537.06;5112474;28;20204;-58
2022/10/14 04:07:38;;;;;;;1.53;0.67;;;;;;;9.17;90.83;99533.97;5112572;28;20448;-57
2022/10/14 04:10:06;;;;;;;0.50;0.43;;;;;;;9.11;91.29;99529.22;5112456;28;20202;-58
2022/10/14 04:12:33;;;;;;;0.27;0.20;;;;;;;9.13;91.58;99527.38;5112234;28;20229;-57
2022/10/14 04:15:01;;;;;;;1.17;0.90;;;;;;;9.07;91.62;99527.75;5112567;28;20583;-58
2022/10/14 04:17:28;;;;;;;1.00;0.90;;;;;;;9.00;92.26;99526.47;5112344;28;20601;-58
2022/10/14 04:19:55;;;;;;;0.60;0.47;;;;;;;9.01;92.46;99523.00;5112226;28;20225;-57
2022/10/14 04:22:22;;;;;;;1.30;1.20;;;;;;;9.04;92.65;99522.84;5111938;28;20720;-58
2022/10/14 04:24:49;;;;;;;0.47;0.47;;;;;;;9.00;92.99;99524.75;5112088;28;20197;-57
2022/10/14 04:27:16;;;;;;;0.60;0.60;;;;;;;8.89;93.76;99523.72;5112120;28;20221;-58
2022/10/14 04:29:43;;;;;;;0.30;0.30;;;;;;;8.89;94.27;99523.72;5111897;28;20205;-57
2022/10/14 04:32:11;;;;;;;0.37;0.37;;;;;;;8.90;94.88;99525.38;5111929;28;20218;-58
2022/10/14 04:34:38;;;;;;;0.40;0.40;;;;;;;8.92;94.61;99526.09;5111954;28;20664;-57
2022/10/14 04:37:05;;;;;;;0.50;0.50;;;;;;;8.99;94.68;99520.56;5112095;28;20217;-58
2022/10/14 04:39:32;;;;;;;0.30;0.30;;;;;;;8.92;94.82;99523.56;5111962;28;20233;-57
2022/10/14 04:41:59;;;;;;;0.70;0.70;;;;;;;8.89;95.08;99521.19;5111847;28;20605;-57
2022/10/14 04:44:25;;;;;;;0.50;0.50;;;;;;;8.91;95.23;99521.94;5111831;28;20193;-57
2022/10/14 04:46:52;;;;;;;0.37;0.37;;;;;;;8.90;95.47;99520.25;5111809;27;20581;-58
2022/10/14 04:49:21;;;;;;;0.47;0.37;;;;;;;8.90;95.49;99510.91;5111624;28;20194;-57
2022/10/14 04:51:47;;;;;;;0.70;0.70;;;;;;;8.88;95.59;99517.00;5110684;28;20245;-58
2022/10/14 04:54:14;;;;;;;0.50;0.50;;;;;;;8.80;95.92;99523.34;5111573;28;20197;-57
2022/10/14 04:56:41;;;;;;;0.10;0.10;;;;;;;8.81;96.13;99525.00;5111775;28;20225;-57
2022/10/14 04:59:08;;;;;;;0.30;0.30;;;;;;;8.76;96.31;99528.75;5111569;28;20728;-58
2022/10/14 05:01:35;;;;;;;0.40;0.40;;;;;;;8.77;96.67;99531.19;5111557;28;20221;-58
2022/10/14 05:04:02;;;;;;;0.37;0.37;;;;;;;8.76;97.13;99529.56;5111543;28;20217;-57
2022/10/14 05:06:30;;;;;;;0.33;0.33;;;;;;;8.87;97.03;99521.25;5111358;28;20587;-58
2022/10/14 05:08:57;;;;;;;0.50;0.40;;;;;;;8.94;97.36;99526.84;5111589;28;20231;-57
2022/10/14 05:11:24;;;;;;;0.13;0.13;;;;;;;9.00;96.99;99529.03;5111206;28;20630;-57
2022/10/14 05:13:50;;;;;;;0.30;0.30;;;;;;;8.96;97.25;99525.00;5111291;28;20200;-57
2022/10/14 05:16:17;;;;;;;0.47;0.47;;;;;;;9.04;97.66;99527.94;5111085;28;20204;-58
2022/10/14 05:18:44;;;;;;;0.90;0.77;;;;;;;9.04;97.80;99533.03;5111083;28;20237;-58
2022/10/14 05:21:11;;;;;;;0.17;0.17;;;;;;;9.15;97.87;99534.97;5110896;28;20201;-58
2022/10/14 05:23:39;;;;;;;0.47;0.43;;;;;;;9.36;97.14;99532.84;5110963;27;20201;-57
2022/10/14 05:26:09;;;;;;;0.20;0.20;;;;;;;9.50;96.86;99536.22;5111382;28;20205;-57
2022/10/14 05:28:37;;;;;;;0.40;0.40;;;;;;;9.49;96.87;99536.31;5110956;28;20208;-57
2022/10/14 05:31:04;;;;;;;0.37;0.37;;;;;;;9.59;96.75;99539.94;5110945;28;20636;-58
2022/10/14 05:33:31;;;;;;;0.10;0.10;;;;;;;9.75;96.47;99540.66;5110871;28;20628;-58
2022/10/14 05:35:58;;;;;;;0.30;0.30;;;;;;;9.87;96.09;99538.25;5110762;28;20193;-57
2022/10/14 05:38:25;;;;;;;0.30;0.30;;;;;;;10.01;95.79;99534.84;5110569;28;20713;-56
2022/10/14 05:40:54;;;;;;;0.30;0.30;;;;;;;10.26;94.48;99534.09;5110766;28;20194;-58
2022/10/14 05:43:21;;;;;;;0.57;0.40;;;;;;;10.41;93.95;99526.31;5110617;28;20224;-57
2022/10/14 05:45:48;;;;;;;0.30;0.30;;;;;;;10.60;93.00;99532.78;5110611;28;20692;-57
2022/10/14 05:48:15;;;;;;;0.30;0.30;;;;;;;10.69;92.86;99531.38;5110474;28;20236;-57
2022/10/14 05:50:42;;;;;;;0.50;0.50;;;;;;;10.87;91.90;99525.84;5110486;28;20208;-58
2022/10/14 05:53:10;;;;;;;0.67;0.67;;;;;;;10.95;91.62;99532.22;5110750;28;20221;-57
2022/10/14 05:55:37;;;;;;;0.67;0.30;;;;;;;11.04;91.85;99532.41;5110594;28;20627;-58
2022/10/14 05:58:05;;;;;;;0.87;0.80;;;;;;;11.20;91.01;99531.38;5110630;28;20221;-58
2022/10/14 06:00:32;;;;;;;0.10;0.10;;;;;;;11.34;90.38;99531.25;5110533;28;20606;-57
2022/10/14 06:02:59;;;;;;;0.20;0.20;;;;;;;11.67;90.01;99535.00;5109812;28;20228;-58
2022/10/14 06:05:26;;;;;;;0.27;0.27;;;;;;;11.84;88.43;99537.19;5110305;28;20203;-59
2022/10/14 06:07:53;;;;;;;0.37;0.37;;;;;;;12.06;88.10;99536.50;5110612;28;20221;-59
2022/10/14 06:10:20;;;;;;;0.20;0.20;;;;;;;12.20;86.83;99538.09;5110341;28;20272;-59
2022/10/14 06:12:47;;;;;;;0.33;0.30;;;;;;;12.43;86.51;99542.38;5110306;28;20217;-59
2022/10/14 06:15:15;;;;;;;0.27;0.27;;;;;;;12.74;85.35;99537.56;5110454;28;20638;-58
2022/10/14 06:17:42;;;;;;;0.30;0.30;;;;;;;13.02;84.38;99538.06;5110262;28;20225;-59
2022/10/14 06:20:10;;;;;;;0.20;0.20;;;;;;;13.22;82.87;99547.66;5110220;28;20224;-58
2022/10/14 06:22:36;;;;;;;0.40;0.40;;;;;;;13.41;82.59;99544.56;5110513;28;20635;-58
2022/10/14 06:25:05;;;;;;;0.87;0.87;;;;;;;13.66;82.35;99540.88;5110197;28;20216;-59
2022/10/14 06:27:32;;;;;;;0.30;0.30;;;;;;;13.85;81.19;99545.41;5110070;28;20244;-59
2022/10/14 06:29:59;;;;;;;0.37;0.37;;;;;;;13.98;80.33;99545.25;5109898;28;20201;-59
2022/10/14 06:32:27;;;;;;;0.20;0.20;;;;;;;13.95;80.60;99540.34;5110012;28;20601;-57
2022/10/14 06:34:54;;;;;;;0.30;0.30;;;;;;;14.13;79.99;99538.88;5110033;28;20193;-59
2022/10/14 06:37:21;;;;;;;0.60;0.60;;;;;;;14.32;79.14;99537.44;5110207;28;20313;-57
2022/10/14 06:39:48;;;;;;;0.13;0.13;;;;;;;14.27;78.89;99541.19;5110079;28;20688;-58
2022/10/14 06:42:15;;;;;;;0.43;0.43;;;;;;;14.40;78.76;99545.34;5110298;28;20297;-59
2022/10/14 06:44:41;;;;;;;0.20;0.20;;;;;;;14.42;78.10;99546.84;5109985;28;20202;-57
2022/10/14 06:47:08;;;;;;;0.83;0.40;;;;;;;14.62;78.06;99545.25;5110305;28;20265;-58
2022/10/14 06:49:37;;;;;;;0.33;0.33;;;;;;;14.69;76.84;99546.41;5110263;28;20198;-58
2022/10/14 06:52:04;;;;;;;1.20;0.83;;;;;;;14.78;77.04;99551.75;5110205;28;20226;-57
2022/10/14 06:54:30;;;;;;;0.40;0.40;;;;;;;14.70;77.05;99550.59;5109744;28;20203;-59
2022/10/14 06:56:57;;;;;;;0.40;0.40;;;;;;;14.65;76.80;99551.91;5110066;28;20221;-57
2022/10/14 06:59:24;;;;;;;0.30;0.30;;;;;;;14.72;76.94;99550.50;5109528;28;20243;-58
2022/10/14 07:01:51;;;;;;;0.53;0.53;;;;;;;14.62;77.31;99554.75;5110125;28;20221;-57
2022/10/14 07:04:18;;;;;;;0.60;0.60;;;;;;;14.66;76.70;99551.81;5109593;28;20202;-57
2022/10/14 07:06:46;;;;;;;0.40;0.40;;;;;;;14.70;76.69;99552.34;5109867;28;20605;-57
2022/10/14 07:09:13;;;;;;;1.60;0.83;;;;;;;14.80;77.15;99558.38;5109808;28;20595;-59
2022/10/14 07:11:41;;;;;;;0.30;0.30;;;;;;;14.77;76.06;99557.81;5109757;28;20688;-57
2022/10/14 07:14:08;;;;;;;1.77;0.77;;;;;;;14.82;77.17;99556.50;5109760;28;20604;-57
2022/10/14 07:16:35;;;;;;;0.40;0.40;;;;;;;15.26;76.27;99551.16;5113035;28;20219;-57
2022/10/14 07:19:02;;;;;;;0.47;0.47;;;;;;;15.58;75.02;99558.72;5113373;28;20239;-58
2022/10/14 07:21:29;;;;;;;0.80;0.80;;;;;;;15.56;74.44;99556.31;5113232;28;20230;-57
2022/10/14 07:23:57;;;;;;;3.30;0.57;;;;;;;15.89;73.17;99562.09;5113384;28;20200;-60
2022/10/14 07:26:24;;;;;;;0.57;0.57;;;;;;;16.09;72.51;99557.78;5113306;28;20206;-57
2022/10/14 07:28:51;;;;;;;0.40;0.40;;;;;;;16.27;72.14;99557.94;5113466;28;20593;-59
2022/10/14 07:31:18;;;;;;;0.57;0.57;;;;;;;16.34;72.21;99561.59;5113510;28;20201;-59
2022/10/14 07:33:45;;;;;;;0.40;0.40;;;;;;;16.41;72.02;99565.28;5113211;28;20386;-57
2022/10/14 07:36:14;;;;;;;0.43;0.43;;;;;;;16.55;70.66;99568.38;5112956;28;20197;-57
2022/10/14 07:38:42;;;;;;;0.87;0.83;;;;;;;16.68;71.36;99564.56;5113260;28;20330;-59
2022/10/14 07:41:16;;;;;;;0.83;0.70;;;;;;;17.08;70.51;99565.31;5113252;28;20216;-59
2022/10/14 07:43:44;;;;;;;0.53;0.53;;;;;;;17.10;70.23;99564.19;5112899;28;20200;-57
2022/10/14 07:46:11;;;;;;;0.43;0.40;;;;;;;17.32;69.38;99567.41;5112821;28;20205;-57
2022/10/14 07:48:40;;;;;;;1.30;0.60;;;;;;;17.54;69.23;99567.06;5112869;28;20204;-58
2022/10/14 07:51:08;;;;;;;0.40;0.40;;;;;;;17.73;67.82;99563.53;5112816;28;20197;-59
2022/10/14 07:53:35;;;;;;;0.47;0.47;;;;;;;18.04;67.34;99558.06;5112774;28;20205;-57
2022/10/14 07:56:03;;;;;;;1.23;0.67;;;;;;;18.14;66.74;99563.16;5113016;28;20248;-57
2022/10/14 07:58:31;;;;;;;0.57;0.50;;;;;;;18.31;65.90;99560.56;5112485;28;20217;-57
2022/10/14 08:00:59;;;;;;;0.90;0.43;;;;;;;18.65;65.31;99557.28;5112471;28;20233;-57
2022/10/14 08:03:26;;;;;;;0.60;0.60;;;;;;;18.80;63.95;99559.34;5112435;28;20267;-58
2022/10/14 08:05:59;;;;;;;0.50;0.50;;;;;;;19.18;63.49;99558.91;5112591;28;20209;-57
2022/10/14 08:08:28;;;;;;;0.57;0.57;;;;;;;19.28;62.29;99563.97;5112398;28;20219;-58
2022/10/14 08:11:02;;;;;;;0.60;0.60;;;;;;;19.52;61.34;99560.69;5112421;28;20276;-57
2022/10/14 08:13:31;;;;;;;0.73;0.50;;;;;;;19.67;61.58;99559.16;5112038;28;20229;-59
2022/10/14 08:15:58;;;;;;;0.40;0.40;;;;;;;19.78;59.81;99560.66;5112553;28;20220;-57
2022/10/14 08:18:25;;;;;;;0.83;0.80;;;;;;;19.68;61.00;99550.38;5111940;28;20228;-58
2022/10/14 08:20:52;;;;;;;0.80;0.80;;;;;;;19.87;61.06;99558.88;5112091;28;20236;-58
2022/10/14 08:23:19;;;;;;;0.50;0.50;;;;;;;20.03;59.54;99553.69;5111904;28;20598;-60
2022/10/14 08:25:48;;;;;;;0.40;0.40;;;;;;;20.42;58.46;99547.91;5111658;28;20669;-60
2022/10/14 08:28:15;;;;;;;0.80;0.70;;;;;;;20.30;57.57;99557.81;5111949;28;20227;-58
2022/10/14 08:30:43;;;;;;;0.40;0.40;;;;;;;20.23;57.35;99553.41;5111744;28;20684;-59
2022/10/14 08:33:11;;;;;;;0.40;0.40;;;;;;;20.07;57.70;99560.22;5111756;28;20217;-58
2022/10/14 08:35:38;;;;;;;0.30;0.30;;;;;;;19.92;58.57;99563.56;5112643;28;20201;-60
2022/10/14 08:38:05;;;;;;;0.83;0.63;;;;;;;19.75;58.59;99565.31;5112092;28;20620;-58
2022/10/14 08:40:46;;;;;;;0.70;0.60;;;;;;;19.90;59.40;99564.56;5111823;28;20240;-59
2022/10/14 08:43:22;;;;;;;0.57;0.50;;;;;;;19.90;58.34;99563.75;5111753;28;20271;-57
2022/10/14 08:45:57;;;;;;;0.50;0.50;;;;;;;20.28;58.20;99561.53;5111683;28;20208;-60
2022/10/14 08:48:28;;;;;;;0.37;0.37;;;;;;;20.10;58.55;99559.91;5111722;28;20231;-58
2022/10/14 08:51:02;;;;;;;0.70;0.70;;;;;;;20.39;58.50;99555.19;5111674;28;20198;-59
2022/10/14 08:53:34;;;;;;;1.33;0.90;;;;;;;20.43;58.89;99553.91;5110890;28;20218;-60
2022/10/14 08:56:02;;;;;;;1.17;0.73;;;;;;;20.40;59.23;99560.22;5110931;28;20675;-59
2022/10/14 08:58:33;;;;;;;0.50;0.50;;;;;;;19.89;60.00;99556.91;5111152;28;20311;-56
2022/10/14 09:01:11;;;;;;;0.80;0.47;;;;;;;20.16;59.02;99563.63;5111150;28;20602;-59
2022/10/14 09:03:37;;;;;;;1.07;0.70;;;;;;;20.04;57.94;99564.88;5110861;28;20212;-59
2022/10/14 09:06:10;;;;;;;0.50;0.50;;;;;;;20.48;59.98;99560.22;5108846;28;20208;-58
2022/10/14 09:08:41;;;;;;;0.60;0.60;;;;;;;20.85;58.39;99558.91;5111507;28;20199;-58
2022/10/14 09:11:14;;;;;;;0.50;0.50;;;;;;;21.00;58.96;99562.47;5111384;28;20666;-60
2022/10/14 09:13:43;;;;;;;0.87;0.53;;;;;;;21.32;56.26;99555.53;5111526;28;20215;-58
2022/10/14 09:16:17;;;;;;;0.53;0.53;;;;;;;21.45;55.44;99558.44;5111140;28;20332;-58
2022/10/14 09:18:48;;;;;;;1.10;1.00;;;;;;;21.33;56.16;99562.34;5111230;28;20194;-58
2022/10/14 09:21:28;;;;;;;1.30;0.70;;;;;;;21.64;55.20;99553.78;5110840;28;20235;-59
2022/10/14 09:24:00;;;;;;;0.30;0.30;;;;;;;21.54;55.38;99548.78;5111057;28;20653;-60
2022/10/14 09:26:38;;;;;;;0.70;0.70;;;;;;;21.62;55.19;99550.56;5111025;28;20592;-58
2022/10/14 09:29:06;;;;;;;0.73;0.60;;;;;;;21.38;54.94;99565.31;5110948;28;20244;-60
2022/10/14 09:31:35;;;;;;;0.77;0.60;;;;;;;21.42;54.90;99556.16;5110901;28;20635;-60
2022/10/14 09:34:02;;;;;;;0.53;0.53;;;;;;;21.08;55.36;99553.00;5110909;28;20219;-60
2022/10/14 09:36:29;;;;;;;2.40;0.60;;;;;;;21.36;56.00;99551.63;5110974;28;20221;-58
2022/10/14 09:38:56;;;;;;;0.40;0.40;;;;;;;21.64;55.03;99553.78;5110322;28;20585;-59
2022/10/14 09:41:28;;;;;;;1.20;0.63;;;;;;;21.66;55.01;99551.81;5110625;28;21127;-60
2022/10/14 09:44:20;;;;;;;1.00;0.80;;;;;;;21.34;54.80;99545.75;5110809;28;20587;-59
2022/10/14 09:46:52;;;;;;;0.67;0.67;;;;;;;20.94;56.53;99552.72;5110985;28;20276;-58
2022/10/14 09:49:26;;;;;;;0.60;0.60;;;;;;;21.34;56.32;99548.34;5111124;28;20227;-59
2022/10/14 09:51:55;;;;;;;0.70;0.70;;;;;;;21.09;56.68;99554.63;5110481;28;20348;-58
2022/10/14 09:54:26;;;;;;;0.50;0.50;;;;;;;20.94;57.13;99542.34;5110321;28;20191;-60
2022/10/14 09:57:00;;;;;;;0.53;0.50;;;;;;;20.75;57.84;99545.28;5110481;28;20213;-59
2022/10/14 09:59:28;;;;;;;0.60;0.60;;;;;;;20.67;57.43;99558.28;5110313;28;20198;-58
2022/10/14 10:01:59;;;;;;;0.60;0.60;;;;;;;20.73;57.32;99552.44;5110734;28;20216;-58
2022/10/14 10:04:34;;;;;;;1.10;0.90;;;;;;;20.56;57.66;99549.84;5110322;28;20311;-59
2022/10/14 10:07:04;;;;;;;1.37;0.80;;;;;;;20.23;58.24;99553.41;5110290;28;20785;-59
2022/10/14 10:09:32;;;;;;;0.43;0.40;;;;;;;19.95;59.24;99550.28;5110267;28;20191;-58
2022/10/14 10:11:59;;;;;;;0.47;0.47;;;;;;;19.70;60.21;99558.03;5110278;28;20217;-60
2022/10/14 10:14:28;;;;;;;0.20;0.20;;;;;;;19.53;61.13;99549.34;5110068;28;20205;-58
2022/10/14 10:17:17;;;;;;;0.67;0.63;;;;;;;19.81;60.58;99549.09;5110409;28;20211;-58
2022/10/14 10:19:46;;;;;;;1.57;0.67;;;;;;;19.90;60.12;99545.59;5110165;28;20198;-58
2022/10/14 10:22:22;;;;;;;0.57;0.57;;;;;;;20.35;59.14;99528.72;5110248;28;20278;-58
2022/10/14 10:24:51;;;;;;;0.73;0.73;;;;;;;20.51;59.04;99539.13;5110278;28;20638;-58
2022/10/14 10:27:24;;;;;;;0.60;0.60;;;;;;;20.60;57.54;99532.16;5110398;28;20657;-58
2022/10/14 10:29:54;;;;;;;0.80;0.57;;;;;;;20.86;56.94;99524.16;5110083;28;20210;-58
2022/10/14 10:32:32;;;;;;;0.50;0.50;;;;;;;21.16;56.30;99534.78;5109893;28;20216;-58
2022/10/14 10:35:18;;;;;;;1.27;0.90;;;;;;;21.22;55.26;99528.91;5110506;28;20215;-58
2022/10/14 10:37:59;;;;;;;1.27;0.57;;;;;;;21.03;55.23;99525.72;5110544;28;20224;-58
2022/10/14 10:40:36;;;;;;;0.60;0.60;;;;;;;20.69;57.32;99522.56;5110273;28;20220;-60
2022/10/14 10:43:26;;;;;;;1.00;0.83;;;;;;;20.64;56.16;99520.44;5109999;28;20681;-59
2022/10/14 10:46:06;;;;;;;0.43;0.43;;;;;;;20.94;56.74;99518.09;5109993;28;20200;-60
2022/10/14 10:48:42;;;;;;;1.10;1.00;;;;;;;21.35;55.28;99516.19;5110140;28;20227;-60
2022/10/14 10:51:14;;;;;;;0.87;0.77;;;;;;;21.42;55.90;99514.53;5114190;28;20275;-61
2022/10/14 10:54:05;;;;;;;0.70;0.70;;;;;;;21.36;54.26;99510.03;5114193;28;20227;-60
2022/10/14 10:56:41;;;;;;;1.20;0.73;;;;;;;21.23;55.32;99504.50;5113972;28;20609;-60
2022/10/14 10:59:43;;;;;;;0.53;0.50;;;;;;;20.57;55.53;99509.91;5114107;28;20631;-58
2022/10/14 11:02:49;;;;;;;0.90;0.77;;;;;;;20.28;57.36;99502.63;5113387;28;20278;-60
2022/10/14 11:05:23;;;;;;;0.63;0.63;;;;;;;20.69;58.18;99488.78;5107600;28;20579;-60
2022/10/14 11:13:45;;;;;;;1.00;0.90;;;;;;;21.17;54.98;99480.00;5113700;28;20248;-58
2022/10/14 11:16:21;;;;;;;0.70;0.67;;;;;;;21.08;53.79;99485.41;5113528;28;20199;-58
2022/10/14 11:18:51;;;;;;;1.00;0.90;;;;;;;21.06;54.18;99476.97;5113748;28;20197;-60
2022/10/14 11:21:30;;;;;;;1.00;0.80;;;;;;;21.14;54.90;99475.13;5113016;28;20229;-59
2022/10/14 11:24:06;;;;;;;0.73;0.73;;;;;;;21.52;54.62;99471.88;5113555;28;20684;-60
2022/10/14 11:26:50;;;;;;;1.13;0.90;;;;;;;21.64;53.26;99475.72;5113158;28;20652;-58
2022/10/14 11:29:35;;;;;;;1.50;0.90;;;;;;;21.60;53.11;99464.03;5113260;28;20375;-58
2022/10/14 11:32:10;;;;;;;1.40;1.03;;;;;;;21.58;53.49;99455.59;5112993;28;20228;-58
2022/10/14 11:34:57;;;;;;;0.80;0.80;;;;;;;21.61;53.21;99455.25;5113512;27;20195;-60
2022/10/14 11:37:37;;;;;;;0.73;0.63;;;;;;;21.77;53.12;99444.72;5112918;28;20226;-60
2022/10/14 11:40:14;;;;;;;1.00;0.90;;;;;;;21.45;52.90;99451.75;5113063;28;20607;-59
2022/10/14 11:42:56;;;;;;;1.00;0.70;;;;;;;20.91;53.51;99449.06;5113515;28;20636;-58
2022/10/14 11:45:45;;;;;;;1.13;1.03;;;;;;;21.19;54.36;99440.84;5113006;28;20305;-61
2022/10/14 11:48:25;;;;;;;1.07;0.97;;;;;;;21.31;52.73;99439.47;5112835;28;20286;-61
2022/10/14 11:50:57;;;;;;;1.13;1.03;;;;;;;21.35;52.95;99440.75;5112870;28;20204;-58
2022/10/14 11:53:38;;;;;;;1.13;1.00;;;;;;;21.15;53.27;99435.16;5112799;28;20614;-59
2022/10/14 11:56:14;;;;;;;0.60;0.60;;;;;;;21.16;53.61;99435.97;5112788;28;20200;-60
2022/10/14 11:58:44;;;;;;;1.10;0.80;;;;;;;21.16;53.51;99430.78;5112943;28;20205;-60